Time;durP1;ratioP1;P1;durP2;ratioP2;P2;SDS_P1;SDS_P2;PMS_P1;PMS_P2;Temp;Humidity;BMP_temperature;BMP_pressure;BME280_temperature;BME280_humidity;BME280_pressure;Samples;Min_cycle;Max_cycle;Signal;HPM_P1;HPM_P2
2023/05/10 00:01:48;;;;;;;6.53;5.93;;;15.10;73.50;;;;;;5113443;27;20461;-76
2023/05/10 00:04:15;;;;;;;5.83;5.00;;;15.00;73.50;;;;;;5113179;27;20518;-75
2023/05/10 00:06:42;;;;;;;7.40;5.43;;;14.90;73.70;;;;;;5113106;27;20540;-75
2023/05/10 00:09:09;;;;;;;6.13;5.60;;;14.90;74.00;;;;;;5112469;27;20883;-75
2023/05/10 00:11:38;;;;;;;8.47;6.03;;;14.80;74.10;;;;;;5113378;27;20456;-76
2023/05/10 00:14:06;;;;;;;8.80;6.10;;;14.90;74.40;;;;;;5111718;27;20559;-76
2023/05/10 00:16:39;;;;;;;5.93;5.43;;;14.80;74.30;;;;;;5113343;27;20469;-76
2023/05/10 00:19:07;;;;;;;5.83;5.33;;;14.80;74.50;;;;;;5112505;27;20549;-75
2023/05/10 00:21:34;;;;;;;8.00;6.13;;;14.80;74.60;;;;;;5112844;27;20484;-77
2023/05/10 00:24:01;;;;;;;7.60;6.80;;;14.80;74.90;;;;;;5112903;27;20555;-75
2023/05/10 00:26:28;;;;;;;7.30;6.33;;;14.80;75.10;;;;;;5113227;27;20457;-75
2023/05/10 00:28:55;;;;;;;5.97;5.50;;;14.80;74.90;;;;;;5117314;27;20957;-77
2023/05/10 00:31:43;;;;;;;7.60;6.30;;;14.80;74.90;;;;;;5117928;27;20464;-76
2023/05/10 00:34:11;;;;;;;6.90;6.40;;;14.80;75.10;;;;;;5113453;27;20533;-76
2023/05/10 00:36:38;;;;;;;6.63;6.10;;;14.70;75.40;;;;;;5113652;27;20460;-76
2023/05/10 00:39:07;;;;;;;9.17;8.17;;;14.70;75.40;;;;;;5113663;27;20502;-76
2023/05/10 00:41:34;;;;;;;7.30;6.10;;;14.70;75.50;;;;;;5113042;27;20766;-76
2023/05/10 00:44:01;;;;;;;6.23;5.70;;;14.70;75.60;;;;;;5115312;27;20484;-76
2023/05/10 00:46:29;;;;;;;7.27;6.57;;;14.70;75.70;;;;;;5115921;27;20832;-76
2023/05/10 00:48:56;;;;;;;6.33;5.77;;;14.60;75.70;;;;;;5116567;27;20464;-76
2023/05/10 00:51:25;;;;;;;6.70;5.83;;;14.60;75.90;;;;;;5115725;27;20492;-76
2023/05/10 00:53:52;;;;;;;6.00;5.50;;;14.50;75.80;;;;;;5116576;27;20464;-76
2023/05/10 00:56:20;;;;;;;6.13;5.63;;;14.50;76.10;;;;;;5115937;27;20468;-76
2023/05/10 00:58:47;;;;;;;6.03;5.53;;;14.40;76.10;;;;;;5116239;27;20465;-76
2023/05/10 01:01:20;;;;;;;6.47;5.80;;;14.30;76.50;;;;;;5115750;27;20461;-76
2023/05/10 01:03:48;;;;;;;7.23;6.40;;;14.30;76.90;;;;;;5116225;27;20463;-76
2023/05/10 01:06:15;;;;;;;7.10;5.87;;;14.20;77.00;;;;;;5115806;27;20468;-76
2023/05/10 01:08:43;;;;;;;7.97;7.25;;;14.20;77.30;;;;;;5115748;27;20768;-76
2023/05/10 01:11:11;;;;;;;7.30;6.70;;;14.20;77.50;;;;;;5116094;27;20249;-76
2023/05/10 01:13:42;;;;;;;6.80;5.70;;;14.10;77.60;;;;;;5115721;27;20453;-76
2023/05/10 01:16:09;;;;;;;7.03;6.40;;;14.10;77.90;;;;;;5115763;27;20860;-76
2023/05/10 01:18:39;;;;;;;6.50;5.90;;;14.10;77.70;;;;;;5115751;27;20468;-76
2023/05/10 01:21:19;;;;;;;6.47;5.90;;;14.10;77.80;;;;;;5116512;27;20464;-76
2023/05/10 01:24:37;;;;;;;6.80;6.17;;;14.00;78.10;;;;;;5115673;27;20482;-76
2023/05/10 01:27:27;;;;;;;8.83;5.93;;;14.00;78.70;;;;;;5068564;28;20486;-76
2023/05/10 01:30:22;;;;;;;6.88;6.28;;;14.00;78.60;;;;;;5116689;27;20476;-76
2023/05/10 01:32:56;;;;;;;6.40;5.90;;;14.00;78.60;;;;;;5116119;27;20219;-76
2023/05/10 01:35:32;;;;;;;7.50;6.50;;;14.00;78.80;;;;;;5124109;27;20495;-76
2023/05/10 01:38:09;;;;;;;6.70;6.10;;;13.90;79.00;;;;;;5125758;27;20456;-76
2023/05/10 01:40:44;;;;;;;7.30;6.60;;;13.90;79.30;;;;;;5122373;27;20955;-76
2023/05/10 01:43:20;;;;;;;5.97;5.33;;;13.80;79.50;;;;;;5118505;27;20221;-75
2023/05/10 01:45:58;;;;;;;7.43;6.60;;;13.90;79.70;;;;;;5116195;27;20494;-75
2023/05/10 01:48:29;;;;;;;6.88;6.30;;;13.80;79.80;;;;;;5116257;27;20222;-76
2023/05/10 01:50:58;;;;;;;6.05;5.55;;;13.80;80.90;;;;;;5115519;27;20895;-76
2023/05/10 01:53:25;;;;;;;8.32;6.57;;;13.70;80.20;;;;;;5114980;27;20245;-76
2023/05/10 01:55:54;;;;;;;6.17;5.57;;;13.70;80.70;;;;;;5114341;27;20230;-76
2023/05/10 01:58:26;;;;;;;6.00;5.50;;;13.70;80.60;;;;;;5115333;27;20961;-76
2023/05/10 02:00:55;;;;;;;6.85;6.15;;;13.70;80.90;;;;;;5114781;27;20256;-76
2023/05/10 02:03:25;;;;;;;5.82;5.43;;;13.60;81.00;;;;;;5115024;27;20242;-76
2023/05/10 02:05:55;;;;;;;6.55;5.95;;;13.50;81.20;;;;;;5114622;27;20229;-76
2023/05/10 02:08:23;;;;;;;7.03;6.43;;;13.50;81.60;;;;;;5115016;27;20218;-76
2023/05/10 02:10:53;;;;;;;6.43;5.82;;;13.50;81.70;;;;;;5114235;27;20242;-76
2023/05/10 02:13:21;;;;;;;9.98;5.75;;;13.50;82.10;;;;;;5114812;27;20214;-76
2023/05/10 02:15:58;;;;;;;6.43;5.93;;;13.50;82.20;;;;;;5114587;27;20238;-76
2023/05/10 02:18:28;;;;;;;7.07;5.60;;;13.40;82.30;;;;;;5114998;27;20226;-75
2023/05/10 02:20:57;;;;;;;8.50;5.88;;;13.40;82.50;;;;;;5114339;27;20226;-76
2023/05/10 02:23:26;;;;;;;6.68;6.07;;;13.40;82.60;;;;;;5114732;27;20218;-76
2023/05/10 02:25:55;;;;;;;6.68;5.97;;;13.40;82.70;;;;;;5114075;27;20219;-76
2023/05/10 02:28:23;;;;;;;7.00;5.97;;;13.40;82.70;;;;;;5114694;27;20276;-76
2023/05/10 02:30:51;;;;;;;6.65;5.95;;;13.40;82.90;;;;;;5113833;27;20226;-76
2023/05/10 02:33:19;;;;;;;6.45;5.95;;;13.40;83.10;;;;;;5114452;27;20283;-76
2023/05/10 02:35:46;;;;;;;6.07;5.47;;;13.30;83.10;;;;;;5113829;27;20249;-76
2023/05/10 02:38:16;;;;;;;6.65;5.95;;;13.30;83.10;;;;;;5114380;27;20478;-76
2023/05/10 02:40:43;;;;;;;10.35;6.50;;;13.30;83.30;;;;;;5113980;27;20218;-75
2023/05/10 02:43:15;;;;;;;6.95;6.35;;;13.30;83.30;;;;;;5114351;27;20382;-76
2023/05/10 02:45:44;;;;;;;6.68;6.07;;;13.30;83.40;;;;;;5113930;27;20616;-76
2023/05/10 02:48:11;;;;;;;6.53;5.93;;;13.30;83.50;;;;;;5114602;27;20275;-75
2023/05/10 02:50:41;;;;;;;6.68;6.03;;;13.30;83.50;;;;;;5113885;27;20315;-76
2023/05/10 02:53:12;;;;;;;11.98;5.95;;;13.20;83.70;;;;;;5115767;27;20230;-76
2023/05/10 02:55:50;;;;;;;6.20;5.60;;;13.20;83.80;;;;;;5118008;27;20222;-75
2023/05/10 02:58:19;;;;;;;8.20;6.32;;;13.20;84.10;;;;;;5121844;27;20248;-76
2023/05/10 03:00:46;;;;;;;6.97;6.20;;;13.10;84.10;;;;;;5125780;27;20222;-76
2023/05/10 03:03:13;;;;;;;6.13;5.63;;;13.10;84.30;;;;;;5120584;27;20257;-76
2023/05/10 03:05:40;;;;;;;5.32;4.72;;;13.10;84.30;;;;;;5112752;27;20223;-75
2023/05/10 03:08:07;;;;;;;6.30;5.70;;;13.00;84.30;;;;;;5113820;27;20222;-75
2023/05/10 03:10:39;;;;;;;6.07;5.47;;;13.00;84.50;;;;;;5113687;27;20222;-76
2023/05/10 03:13:17;;;;;;;6.95;6.25;;;13.00;84.70;;;;;;5113312;27;20226;-77
2023/05/10 03:15:53;;;;;;;7.20;6.50;;;12.90;84.60;;;;;;5113303;27;20234;-76
2023/05/10 03:18:24;;;;;;;6.57;5.97;;;12.90;84.90;;;;;;5113537;27;20223;-76
2023/05/10 03:20:55;;;;;;;5.90;5.18;;;12.90;85.00;;;;;;5113359;27;20537;-76
2023/05/10 03:23:27;;;;;;;6.70;5.57;;;12.90;85.10;;;;;;5112812;27;20290;-76
2023/05/10 03:25:55;;;;;;;5.72;5.13;;;12.90;85.20;;;;;;5112583;27;20219;-76
2023/05/10 03:28:27;;;;;;;6.30;5.70;;;12.90;85.30;;;;;;5113528;27;20230;-76
2023/05/10 03:30:54;;;;;;;9.30;5.10;;;12.90;85.20;;;;;;5113262;27;20313;-77
2023/05/10 03:33:21;;;;;;;5.47;4.97;;;12.90;85.20;;;;;;5113102;27;20218;-76
2023/05/10 03:35:49;;;;;;;5.60;5.10;;;12.90;85.30;;;;;;5112930;27;20312;-76
2023/05/10 03:38:16;;;;;;;8.18;6.22;;;12.80;85.40;;;;;;5113496;27;20238;-76
2023/05/10 03:40:43;;;;;;;5.85;5.25;;;12.80;85.40;;;;;;5113023;27;20226;-76
2023/05/10 03:43:10;;;;;;;5.45;5.00;;;12.80;85.50;;;;;;5112857;27;20551;-75
2023/05/10 03:45:38;;;;;;;6.32;5.72;;;12.80;85.40;;;;;;5112990;27;20242;-75
2023/05/10 03:48:05;;;;;;;5.45;4.85;;;12.90;85.60;;;;;;5112603;27;20227;-76
2023/05/10 03:50:32;;;;;;;6.70;4.93;;;12.80;85.50;;;;;;5113300;27;20222;-76
2023/05/10 03:52:59;;;;;;;7.50;5.80;;;12.90;85.70;;;;;;5112374;27;20250;-75
2023/05/10 03:55:26;;;;;;;6.90;6.30;;;12.90;85.70;;;;;;5112920;27;20629;-76
2023/05/10 03:57:53;;;;;;;5.95;4.88;;;12.80;85.60;;;;;;5112694;27;20214;-76
2023/05/10 04:00:21;;;;;;;5.70;5.18;;;12.80;85.80;;;;;;5112985;27;20223;-76
2023/05/10 04:02:49;;;;;;;6.03;5.15;;;12.80;85.90;;;;;;5112861;27;20253;-76
2023/05/10 04:05:20;;;;;;;7.32;5.22;;;12.80;85.90;;;;;;5112979;27;20280;-76
2023/05/10 04:07:49;;;;;;;6.00;4.47;;;12.80;86.00;;;;;;5113489;27;20218;-76
2023/05/10 04:10:17;;;;;;;5.43;4.95;;;12.70;85.90;;;;;;5112251;27;20276;-76
2023/05/10 04:12:44;;;;;;;5.70;4.93;;;12.70;86.00;;;;;;5112972;27;20214;-75
2023/05/10 04:15:11;;;;;;;6.47;5.88;;;12.70;86.30;;;;;;5112582;27;20227;-76
2023/05/10 04:17:38;;;;;;;6.25;5.32;;;12.60;86.50;;;;;;5114654;27;20227;-76
2023/05/10 04:20:08;;;;;;;6.45;5.00;;;12.60;86.80;;;;;;5116867;27;20230;-75
2023/05/10 04:22:35;;;;;;;6.45;4.93;;;12.60;86.70;;;;;;5116869;27;20752;-76
2023/05/10 04:25:02;;;;;;;4.97;4.57;;;12.60;87.50;;;;;;5116661;27;20254;-76
2023/05/10 04:27:28;;;;;;;5.43;4.95;;;12.60;86.80;;;;;;5117938;27;20230;-76
2023/05/10 04:29:55;;;;;;;6.20;5.13;;;12.60;86.70;;;;;;5125946;27;20226;-77
2023/05/10 04:32:22;;;;;;;7.20;5.43;;;12.60;86.80;;;;;;5124706;27;20219;-75
2023/05/10 04:34:50;;;;;;;9.88;4.90;;;12.70;86.90;;;;;;5120911;27;20230;-76
2023/05/10 04:37:19;;;;;;;5.20;4.63;;;12.70;86.70;;;;;;5117273;27;20251;-75
2023/05/10 04:39:46;;;;;;;7.15;5.60;;;12.80;86.90;;;;;;5118573;27;20210;-75
2023/05/10 04:42:14;;;;;;;5.78;5.28;;;12.80;86.90;;;;;;5124457;27;20222;-75
2023/05/10 04:44:46;;;;;;;5.80;4.93;;;12.80;86.70;;;;;;5123453;27;20219;-76
2023/05/10 04:47:13;;;;;;;6.88;5.28;;;12.80;87.60;;;;;;5124175;27;20226;-76
2023/05/10 04:49:40;;;;;;;8.93;4.80;;;12.90;86.70;;;;;;5119887;27;20272;-76
2023/05/10 04:52:07;;;;;;;4.90;4.50;;;12.90;86.60;;;;;;5119073;27;20219;-76
2023/05/10 04:54:35;;;;;;;5.25;4.85;;;12.90;86.70;;;;;;5119143;27;20268;-76
2023/05/10 04:57:02;;;;;;;5.50;4.88;;;12.90;86.70;;;;;;5117723;27;20571;-75
2023/05/10 04:59:29;;;;;;;4.85;4.35;;;13.00;86.70;;;;;;5118621;27;20291;-76
2023/05/10 05:01:56;;;;;;;6.38;5.13;;;13.10;86.60;;;;;;5121073;27;20222;-76
2023/05/10 05:04:23;;;;;;;5.28;4.80;;;13.20;86.50;;;;;;5118624;27;20307;-76
2023/05/10 05:06:50;;;;;;;6.85;5.05;;;13.20;86.50;;;;;;5107144;27;20222;-76
2023/05/10 05:09:20;;;;;;;4.78;4.38;;;13.30;86.20;;;;;;5116508;27;20298;-76
2023/05/10 05:11:48;;;;;;;5.30;4.50;;;13.30;87.00;;;;;;5125900;27;20218;-76
2023/05/10 05:14:15;;;;;;;6.30;4.55;;;13.40;86.30;;;;;;5123214;27;20248;-76
2023/05/10 05:16:42;;;;;;;5.13;4.72;;;13.40;86.00;;;;;;5131093;27;20244;-76
2023/05/10 05:19:24;;;;;;;5.07;4.53;;;13.60;86.00;;;;;;5112657;27;20227;-76
2023/05/10 05:21:54;;;;;;;4.80;4.13;;;13.60;85.70;;;;;;5151513;27;20218;-74
2023/05/10 05:24:21;;;;;;;5.35;4.72;;;13.70;85.80;;;;;;5123311;27;20223;-75
2023/05/10 05:26:49;;;;;;;5.80;4.90;;;13.70;86.10;;;;;;5123540;27;20215;-75
2023/05/10 05:29:16;;;;;;;4.97;4.23;;;13.90;86.40;;;;;;5120313;27;20234;-76
2023/05/10 05:31:43;;;;;;;7.10;4.80;;;13.90;85.70;;;;;;5123851;27;20490;-75
2023/05/10 05:34:10;;;;;;;4.45;4.05;;;14.00;85.60;;;;;;5123726;27;20248;-75
2023/05/10 05:36:38;;;;;;;5.03;4.53;;;14.00;85.30;;;;;;5127014;27;20230;-76
2023/05/10 05:39:05;;;;;;;6.23;4.53;;;14.10;85.20;;;;;;5127916;27;20472;-76
2023/05/10 05:41:32;;;;;;;4.70;4.30;;;14.10;84.90;;;;;;5128735;27;20490;-75
2023/05/10 05:44:00;;;;;;;7.87;4.80;;;14.20;84.90;;;;;;5132356;27;20465;-76
2023/05/10 05:46:28;;;;;;;4.97;4.07;;;14.30;84.80;;;;;;5132715;27;20630;-74
2023/05/10 05:48:55;;;;;;;8.30;4.83;;;14.40;84.70;;;;;;5132583;27;20486;-75
2023/05/10 05:51:21;;;;;;;8.10;5.20;;;14.50;84.50;;;;;;5132401;27;20468;-77
2023/05/10 05:53:48;;;;;;;3.73;3.50;;;14.60;84.20;;;;;;5129745;27;20486;-76
2023/05/10 05:56:17;;;;;;;7.73;5.00;;;14.60;83.90;;;;;;5131270;27;20570;-76
2023/05/10 05:58:44;;;;;;;5.97;3.90;;;14.70;83.80;;;;;;5130216;27;20452;-76
2023/05/10 06:01:12;;;;;;;3.93;3.57;;;14.80;83.50;;;;;;5129128;27;20460;-75
2023/05/10 06:03:39;;;;;;;6.17;3.13;;;14.80;83.30;;;;;;5133430;27;21018;-75
2023/05/10 06:06:06;;;;;;;4.50;3.53;;;14.90;83.10;;;;;;5131527;27;20464;-76
2023/05/10 06:08:33;;;;;;;7.67;4.00;;;15.00;83.30;;;;;;5118765;27;20452;-76
2023/05/10 06:11:00;;;;;;;4.50;4.10;;;15.10;83.20;;;;;;5122491;27;20528;-76
2023/05/10 06:13:31;;;;;;;4.50;4.10;;;15.20;83.10;;;;;;5142671;27;20523;-76
2023/05/10 06:15:58;;;;;;;7.40;3.67;;;15.30;83.10;;;;;;5117691;27;20468;-76
2023/05/10 06:18:28;;;;;;;6.40;3.70;;;15.40;82.60;;;;;;5119885;27;20465;-75
2023/05/10 06:20:55;;;;;;;6.10;4.13;;;15.50;82.20;;;;;;5119392;27;21003;-75
2023/05/10 06:23:23;;;;;;;3.90;3.60;;;15.60;81.60;;;;;;5116682;27;20969;-77
2023/05/10 06:25:50;;;;;;;5.57;3.70;;;15.70;81.00;;;;;;5118704;27;20807;-75
2023/05/10 06:28:16;;;;;;;5.63;2.90;;;15.70;81.30;;;;;;5120499;27;20476;-76
2023/05/10 06:30:45;;;;;;;4.87;2.97;;;15.80;80.90;;;;;;5119043;27;20514;-76
2023/05/10 06:33:12;;;;;;;3.73;3.43;;;15.90;81.00;;;;;;5117324;27;20468;-75
2023/05/10 06:35:40;;;;;;;7.73;3.47;;;16.00;80.70;;;;;;5116799;27;20468;-75
2023/05/10 06:38:07;;;;;;;3.87;3.07;;;16.00;80.20;;;;;;5117415;27;20491;-76
2023/05/10 06:40:34;;;;;;;3.70;3.40;;;16.20;80.20;;;;;;5116384;27;20476;-75
2023/05/10 06:43:01;;;;;;;4.23;3.60;;;16.30;79.80;;;;;;5116369;27;21032;-77
2023/05/10 06:45:27;;;;;;;3.00;2.60;;;16.30;79.40;;;;;;5114112;27;20488;-76
2023/05/10 06:47:54;;;;;;;3.73;3.43;;;16.50;79.70;;;;;;5114865;27;20468;-76
2023/05/10 06:50:21;;;;;;;9.70;3.67;;;16.70;79.70;;;;;;5114679;27;20499;-75
2023/05/10 06:52:50;;;;;;;5.10;3.20;;;16.80;78.70;;;;;;5115411;27;20476;-76
2023/05/10 06:55:17;;;;;;;5.20;3.67;;;16.80;78.40;;;;;;5114695;27;20549;-76
2023/05/10 06:57:47;;;;;;;3.60;3.30;;;16.90;78.50;;;;;;5114130;27;20945;-75
2023/05/10 07:00:15;;;;;;;4.00;3.63;;;16.90;78.30;;;;;;5114623;27;20983;-75
2023/05/10 07:02:51;;;;;;;3.63;3.13;;;17.00;78.20;;;;;;5114029;27;20495;-75
2023/05/10 07:05:19;;;;;;;4.40;3.43;;;17.10;78.20;;;;;;5105942;27;20547;-76
2023/05/10 07:07:46;;;;;;;4.77;3.30;;;17.20;77.80;;;;;;5113767;27;20460;-75
2023/05/10 07:10:14;;;;;;;2.90;2.70;;;17.20;77.70;;;;;;5113818;27;20488;-76
2023/05/10 07:12:41;;;;;;;4.63;3.40;;;17.20;77.40;;;;;;5113281;27;20521;-76
2023/05/10 07:15:10;;;;;;;3.73;3.43;;;17.40;77.60;;;;;;5113518;27;20504;-76
2023/05/10 07:17:37;;;;;;;3.43;3.07;;;17.50;77.40;;;;;;5113490;27;20899;-76
2023/05/10 07:20:04;;;;;;;3.47;3.10;;;17.70;76.90;;;;;;5113482;27;20496;-76
2023/05/10 07:22:31;;;;;;;3.60;3.27;;;17.80;76.10;;;;;;5136344;27;20466;-76
2023/05/10 07:24:58;;;;;;;3.30;2.90;;;18.10;76.20;;;;;;5113737;27;20500;-76
2023/05/10 07:27:26;;;;;;;3.10;2.80;;;18.30;75.60;;;;;;5113635;27;20499;-76
2023/05/10 07:29:54;;;;;;;3.13;2.93;;;18.50;75.50;;;;;;5113382;27;20959;-76
2023/05/10 07:32:21;;;;;;;4.00;3.40;;;18.80;75.40;;;;;;5113754;27;20987;-76
2023/05/10 07:34:48;;;;;;;5.63;3.27;;;18.90;74.50;;;;;;5112903;27;20522;-76
2023/05/10 07:37:15;;;;;;;3.93;3.63;;;19.00;73.00;;;;;;5113183;27;20495;-76
2023/05/10 07:39:42;;;;;;;11.23;3.83;;;19.10;72.80;;;;;;5112832;27;20460;-76
2023/05/10 07:42:09;;;;;;;3.90;3.27;;;19.10;72.80;;;;;;5113222;27;20490;-76
2023/05/10 07:44:37;;;;;;;5.80;3.10;;;19.30;73.00;;;;;;5112871;27;20464;-75
2023/05/10 07:47:04;;;;;;;4.70;2.87;;;19.30;72.20;;;;;;5113466;27;20962;-75
2023/05/10 07:49:31;;;;;;;4.00;3.50;;;19.40;72.10;;;;;;5112024;27;20496;-76
2023/05/10 07:51:57;;;;;;;4.67;3.10;;;19.50;72.30;;;;;;5113144;27;20468;-76
2023/05/10 07:54:24;;;;;;;3.90;3.50;;;19.60;72.10;;;;;;5113515;27;20977;-76
2023/05/10 07:56:53;;;;;;;4.00;3.70;;;19.70;71.70;;;;;;5112573;27;20530;-76
2023/05/10 07:59:20;;;;;;;4.43;3.87;;;19.60;71.50;;;;;;5113379;27;20465;-76
2023/05/10 08:01:48;;;;;;;3.20;3.00;;;19.60;71.20;;;;;;5112893;27;20912;-76
2023/05/10 08:04:15;;;;;;;4.33;3.03;;;19.60;71.40;;;;;;5113024;27;20480;-76
2023/05/10 08:06:42;;;;;;;5.10;3.70;;;19.60;71.50;;;;;;5112567;27;20546;-76
2023/05/10 08:09:09;;;;;;;4.53;3.23;;;19.70;71.40;;;;;;5113079;27;20475;-78
2023/05/10 08:11:36;;;;;;;6.77;3.20;;;19.80;70.90;;;;;;5112172;27;20547;-76
2023/05/10 08:14:03;;;;;;;6.07;3.20;;;19.80;70.00;;;;;;5112702;27;21019;-76
2023/05/10 08:16:30;;;;;;;4.87;3.47;;;19.80;70.30;;;;;;5112869;27;20468;-76
2023/05/10 08:18:58;;;;;;;3.50;2.97;;;19.90;70.40;;;;;;5112779;27;20484;-76
2023/05/10 08:21:25;;;;;;;3.50;3.20;;;20.00;70.90;;;;;;5112583;27;20503;-76
2023/05/10 08:23:52;;;;;;;3.87;2.80;;;20.00;70.30;;;;;;5112845;27;20543;-76
2023/05/10 08:26:20;;;;;;;6.70;2.90;;;20.10;70.30;;;;;;5113095;27;20469;-75
2023/05/10 08:28:48;;;;;;;5.20;3.07;;;20.10;70.30;;;;;;5112532;27;20465;-76
2023/05/10 08:31:16;;;;;;;3.60;3.30;;;20.10;70.00;;;;;;5112812;27;20525;-75
2023/05/10 08:33:43;;;;;;;3.77;3.37;;;19.90;69.50;;;;;;5112726;27;21011;-75
2023/05/10 08:36:13;;;;;;;3.30;2.60;;;19.80;69.80;;;;;;5114772;27;20529;-75
2023/05/10 08:38:40;;;;;;;4.30;3.20;;;19.90;70.40;;;;;;5126877;27;20513;-75
2023/05/10 08:41:10;;;;;;;3.73;2.57;;;20.00;70.20;;;;;;5125544;27;20517;-76
2023/05/10 08:43:40;;;;;;;4.33;3.20;;;20.00;70.20;;;;;;5126894;27;21014;-77
2023/05/10 08:46:10;;;;;;;5.30;3.50;;;20.10;70.50;;;;;;5123614;27;20465;-76
2023/05/10 08:48:38;;;;;;;3.77;2.70;;;20.20;70.70;;;;;;5115149;27;20460;-74
2023/05/10 08:51:06;;;;;;;5.63;3.40;;;20.20;70.80;;;;;;5113802;27;20513;-76
2023/05/10 08:53:37;;;;;;;3.83;3.37;;;20.20;70.20;;;;;;5112401;27;20481;-75
2023/05/10 08:56:05;;;;;;;6.90;2.97;;;20.20;69.80;;;;;;5112184;27;20480;-75
2023/05/10 08:58:32;;;;;;;3.20;3.00;;;20.10;69.30;;;;;;5112430;27;20493;-75
2023/05/10 09:01:01;;;;;;;5.47;3.60;;;20.10;69.40;;;;;;5112141;27;21858;-76
2023/05/10 09:03:28;;;;;;;3.47;2.73;;;20.10;69.50;;;;;;5112634;27;20547;-75
2023/05/10 09:05:57;;;;;;;5.03;3.13;;;20.10;69.90;;;;;;5116190;27;20511;-76
2023/05/10 09:08:26;;;;;;;4.10;3.23;;;20.20;70.20;;;;;;5116345;27;21002;-76
2023/05/10 09:10:55;;;;;;;3.00;2.80;;;20.10;70.00;;;;;;5115636;27;20475;-75
2023/05/10 09:13:23;;;;;;;3.43;3.13;;;20.10;69.80;;;;;;5116256;27;20484;-76
2023/05/10 09:15:52;;;;;;;6.87;3.23;;;20.20;70.40;;;;;;5115978;27;20479;-76
2023/05/10 09:18:19;;;;;;;5.93;3.07;;;20.20;70.80;;;;;;5115871;27;20483;-74
2023/05/10 09:20:46;;;;;;;3.53;3.23;;;20.30;71.00;;;;;;5115812;27;20814;-77
2023/05/10 09:23:13;;;;;;;3.63;3.33;;;20.30;69.70;;;;;;5115867;27;20464;-76
2023/05/10 09:25:42;;;;;;;3.03;2.83;;;20.40;69.60;;;;;;5116009;27;20791;-76
2023/05/10 09:28:10;;;;;;;3.50;3.20;;;20.50;69.70;;;;;;5115718;27;20946;-76
2023/05/10 09:30:38;;;;;;;7.20;3.40;;;20.50;68.90;;;;;;5115832;27;20555;-76
2023/05/10 09:33:05;;;;;;;4.30;2.73;;;20.50;69.20;;;;;;5115340;27;20460;-76
2023/05/10 09:35:35;;;;;;;3.10;2.90;;;20.40;70.00;;;;;;5115854;27;20537;-76
2023/05/10 09:38:05;;;;;;;5.70;3.37;;;20.40;68.90;;;;;;5115284;27;20572;-76
2023/05/10 09:40:32;;;;;;;3.63;3.03;;;20.30;69.60;;;;;;5115716;27;21018;-75
2023/05/10 09:43:01;;;;;;;4.60;3.87;;;20.40;69.90;;;;;;5114810;27;20595;-75
2023/05/10 09:45:31;;;;;;;3.63;3.33;;;20.40;69.00;;;;;;5116622;27;20472;-76
2023/05/10 09:47:59;;;;;;;3.23;3.03;;;20.40;69.30;;;;;;5119585;27;20865;-76
2023/05/10 09:50:28;;;;;;;4.60;2.70;;;20.50;69.20;;;;;;5119563;27;20465;-76
2023/05/10 09:52:59;;;;;;;3.40;2.50;;;20.60;69.20;;;;;;5119765;27;20464;-76
2023/05/10 09:55:42;;;;;;;4.23;3.20;;;20.60;69.10;;;;;;5115736;27;20484;-76
2023/05/10 09:58:10;;;;;;;3.03;2.83;;;20.70;69.00;;;;;;5106412;27;20460;-75
2023/05/10 10:00:39;;;;;;;2.83;2.63;;;20.80;69.50;;;;;;5115410;27;20548;-76
2023/05/10 10:03:07;;;;;;;4.50;3.47;;;20.80;69.20;;;;;;5114898;27;20469;-75
2023/05/10 10:05:36;;;;;;;7.73;3.40;;;20.80;68.70;;;;;;5115083;27;20464;-75
2023/05/10 10:08:05;;;;;;;3.80;3.23;;;20.90;68.60;;;;;;5114660;27;20522;-75
2023/05/10 10:10:33;;;;;;;5.07;3.00;;;21.10;68.40;;;;;;5114664;27;20496;-75
2023/05/10 10:13:01;;;;;;;3.73;2.83;;;21.10;67.60;;;;;;5114419;27;20460;-74
2023/05/10 10:15:30;;;;;;;5.03;3.33;;;21.10;67.60;;;;;;5114405;27;20488;-75
2023/05/10 10:17:59;;;;;;;4.43;3.37;;;21.10;67.30;;;;;;5114332;27;20472;-75
2023/05/10 10:20:27;;;;;;;4.10;3.30;;;21.10;67.30;;;;;;5116199;27;20533;-75
2023/05/10 10:22:54;;;;;;;4.17;3.03;;;21.20;67.20;;;;;;5114685;27;20465;-74
2023/05/10 10:25:22;;;;;;;3.33;2.60;;;21.20;67.60;;;;;;5114712;27;20836;-75
2023/05/10 10:28:18;;;;;;;3.53;3.23;;;21.20;67.40;;;;;;5114683;27;20533;-75
2023/05/10 10:30:49;;;;;;;3.70;2.93;;;21.20;66.60;;;;;;5110179;27;20449;-76
2023/05/10 10:33:40;;;;;;;2.77;2.57;;;21.20;66.90;;;;;;5115422;27;21035;-76
2023/05/10 10:36:08;;;;;;;3.50;2.50;;;21.20;66.80;;;;;;5115190;27;20478;-75
2023/05/10 10:38:59;;;;;;;3.10;2.90;;;21.20;66.70;;;;;;5115205;27;20464;-75
2023/05/10 10:41:32;;;;;;;4.30;3.37;;;21.20;66.30;;;;;;5115114;27;20522;-76
2023/05/10 10:44:29;;;;;;;3.47;3.17;;;21.30;66.10;;;;;;5133480;27;20865;-76
2023/05/10 10:47:05;;;;;;;4.10;3.60;;;21.40;66.30;;;;;;5115028;27;20456;-77
2023/05/10 10:49:38;;;;;;;3.33;3.03;;;21.30;66.00;;;;;;5114593;27;20471;-76
2023/05/10 10:52:28;;;;;;;3.57;2.93;;;21.40;66.10;;;;;;5115210;27;20464;-75
2023/05/10 10:55:00;;;;;;;3.50;3.27;;;21.50;65.20;;;;;;5114128;27;20535;-76
2023/05/10 10:57:30;;;;;;;2.73;2.53;;;21.50;64.90;;;;;;5114681;27;20461;-76
2023/05/10 11:00:19;;;;;;;4.70;3.07;;;21.60;65.00;;;;;;5114362;27;20852;-76
2023/05/10 11:02:51;;;;;;;3.37;3.00;;;21.60;64.50;;;;;;5114773;27;20488;-76
2023/05/10 11:05:46;;;;;;;3.83;3.53;;;21.80;65.00;;;;;;5104579;27;20461;-77
2023/05/10 11:08:28;;;;;;;3.63;3.33;;;21.80;66.40;;;;;;5113765;27;20552;-76
2023/05/10 11:11:07;;;;;;;5.00;3.13;;;21.90;66.40;;;;;;5114563;27;20992;-76
2023/05/10 11:13:35;;;;;;;4.73;3.20;;;22.00;65.40;;;;;;5115159;27;20586;-75
2023/05/10 11:16:20;;;;;;;4.20;2.50;;;21.90;64.60;;;;;;5113627;27;20925;-76
2023/05/10 11:18:59;;;;;;;2.90;2.60;;;22.00;65.30;;;;;;5112461;27;20469;-76
2023/05/10 11:21:31;;;;;;;3.87;2.90;;;22.10;65.20;;;;;;5114585;27;20495;-75
2023/05/10 11:23:59;;;;;;;2.97;2.50;;;22.20;65.30;;;;;;5113776;27;20965;-77
2023/05/10 11:26:27;;;;;;;3.27;2.97;;;22.20;65.70;;;;;;5113670;27;20472;-76
2023/05/10 11:28:56;;;;;;;2.87;2.67;;;22.30;65.40;;;;;;5112896;27;20474;-77
2023/05/10 11:31:26;;;;;;;3.13;2.93;;;22.40;65.00;;;;;;5114067;27;20457;-76
2023/05/10 11:33:55;;;;;;;3.53;3.00;;;22.50;65.00;;;;;;5136673;27;20538;-77
2023/05/10 11:36:28;;;;;;;2.90;2.70;;;22.50;63.50;;;;;;5114792;27;20471;-76
2023/05/10 11:39:02;;;;;;;4.47;3.07;;;22.60;63.60;;;;;;5111764;27;20525;-76
2023/05/10 11:41:31;;;;;;;3.63;2.80;;;22.60;63.20;;;;;;5115457;27;20938;-75
2023/05/10 11:44:02;;;;;;;3.40;2.43;;;22.60;62.80;;;;;;5113974;27;20554;-76
2023/05/10 11:46:29;;;;;;;4.87;3.00;;;22.70;62.50;;;;;;5114974;27;20515;-76
2023/05/10 11:49:03;;;;;;;3.47;2.63;;;22.60;61.80;;;;;;5135477;27;20468;-76
2023/05/10 11:51:34;;;;;;;3.57;3.27;;;22.60;61.70;;;;;;5115747;27;20479;-76
2023/05/10 11:54:07;;;;;;;6.43;3.10;;;22.60;62.00;;;;;;5114979;27;20468;-77
2023/05/10 11:56:38;;;;;;;2.80;2.60;;;22.60;62.60;;;;;;5115040;27;20483;-76
2023/05/10 11:59:05;;;;;;;6.20;2.87;;;22.60;62.70;;;;;;5103622;27;20486;-75
2023/05/10 12:01:33;;;;;;;3.90;2.80;;;22.70;63.20;;;;;;5114380;27;20810;-76
2023/05/10 12:04:01;;;;;;;2.67;2.47;;;22.70;63.30;;;;;;5114222;27;20809;-76
2023/05/10 12:06:33;;;;;;;6.20;2.80;;;22.70;62.90;;;;;;5114561;27;20833;-76
2023/05/10 12:09:06;;;;;;;4.43;2.93;;;22.70;61.20;;;;;;5114102;27;20499;-76
2023/05/10 12:11:33;;;;;;;6.10;3.50;;;22.70;60.50;;;;;;5113854;27;20970;-76
2023/05/10 12:14:00;;;;;;;4.67;3.10;;;22.70;60.70;;;;;;5108214;27;20470;-76
2023/05/10 12:16:30;;;;;;;6.63;3.67;;;22.70;60.90;;;;;;5132097;27;20477;-76
2023/05/10 12:18:58;;;;;;;10.90;3.47;;;22.70;60.90;;;;;;5112932;27;20471;-76
2023/05/10 12:21:26;;;;;;;3.30;2.70;;;22.60;60.80;;;;;;5112913;27;20539;-75
2023/05/10 12:23:55;;;;;;;3.53;2.27;;;22.70;61.20;;;;;;5113624;27;20480;-75
2023/05/10 12:26:26;;;;;;;5.30;2.80;;;22.70;60.80;;;;;;5112466;27;20547;-75
2023/05/10 12:28:53;;;;;;;4.83;3.20;;;22.80;60.40;;;;;;5112119;27;20474;-76
2023/05/10 12:31:23;;;;;;;3.23;2.77;;;22.80;59.90;;;;;;5113741;27;20476;-77
2023/05/10 12:33:50;;;;;;;3.63;2.90;;;22.80;59.10;;;;;;5113772;27;20542;-76
2023/05/10 12:36:24;;;;;;;5.83;2.70;;;22.80;59.20;;;;;;5113221;27;20465;-74
2023/05/10 12:38:52;;;;;;;4.07;3.73;;;22.80;59.20;;;;;;5115511;27;20471;-76
2023/05/10 12:44:11;;;;;;;3.47;3.17;;;22.90;59.90;;;;;;5123198;27;20469;-75
2023/05/10 12:46:41;;;;;;;3.40;2.80;;;23.00;60.00;;;;;;5159242;27;20899;-76
2023/05/10 12:49:08;;;;;;;4.17;2.97;;;23.00;60.60;;;;;;5144556;27;20568;-76
2023/05/10 12:51:35;;;;;;;3.43;3.13;;;23.00;59.90;;;;;;5117592;27;20512;-76
2023/05/10 12:54:04;;;;;;;3.20;2.90;;;23.00;60.20;;;;;;5118410;27;20471;-76
2023/05/10 12:56:32;;;;;;;3.40;3.10;;;23.00;60.30;;;;;;5117933;27;20464;-76
2023/05/10 12:59:16;;;;;;;4.13;3.60;;;23.00;60.10;;;;;;5118621;27;20467;-75
2023/05/10 13:01:45;;;;;;;3.20;2.90;;;23.00;59.90;;;;;;5112271;27;20509;-76